Time;durP1;ratioP1;P1;durP2;ratioP2;P2;SDS_P1;SDS_P2;PMS_P1;PMS_P2;Temp;Humidity;BMP_temperature;BMP_pressure;BME280_temperature;BME280_humidity;BME280_pressure;Samples;Min_cycle;Max_cycle;Signal;HPM_P1;HPM_P2
2023/08/20 00:00:07;;;;;;;19.03;16.37;;;23.10;99.90;;;23.03;82.62;101388.78;5055285;28;20204;-78
2023/08/20 00:02:43;;;;;;;17.93;16.03;;;23.00;99.90;;;23.05;83.21;101388.53;5054928;28;20614;-78
2023/08/20 00:05:21;;;;;;;16.63;14.93;;;23.00;99.90;;;23.04;82.83;101395.09;5055247;28;20201;-76
2023/08/20 00:07:53;;;;;;;18.47;16.57;;;23.00;99.90;;;23.06;83.20;101395.69;5055002;28;20635;-76
2023/08/20 00:10:30;;;;;;;19.37;17.20;;;23.00;99.90;;;22.99;83.73;101400.38;5055093;28;20277;-77
2023/08/20 00:13:02;;;;;;;19.80;17.80;;;22.90;99.90;;;22.90;83.69;101397.13;5054990;28;20257;-78
2023/08/20 00:15:34;;;;;;;18.50;16.70;;;22.90;99.90;;;22.87;83.96;101394.84;5055052;28;20297;-78
2023/08/20 00:18:08;;;;;;;17.77;15.97;;;22.90;99.90;;;22.91;83.68;101408.88;5054654;28;20221;-78
2023/08/20 00:20:41;;;;;;;18.93;16.40;;;22.90;99.90;;;22.86;83.51;101416.91;5055018;28;20722;-78
2023/08/20 00:23:16;;;;;;;17.20;15.40;;;22.80;99.90;;;22.86;83.68;101416.91;5054849;28;20317;-78
2023/08/20 00:25:50;;;;;;;18.10;16.40;;;22.90;99.90;;;22.85;83.58;101415.22;5054812;28;20277;-78
2023/08/20 00:28:24;;;;;;;16.60;14.90;;;22.90;99.90;;;22.87;83.30;101421.31;5054879;28;20572;-77
2023/08/20 00:30:56;;;;;;;16.40;14.60;;;22.90;99.90;;;22.77;83.28;101416.38;5054444;28;20739;-78
2023/08/20 00:33:30;;;;;;;17.27;15.47;;;22.80;99.90;;;22.71;83.60;101409.88;5054693;28;20240;-78
2023/08/20 00:36:02;;;;;;;16.53;14.67;;;22.70;99.90;;;22.69;83.22;101417.47;5054645;28;20268;-77
2023/08/20 00:38:34;;;;;;;19.33;14.90;;;22.70;99.90;;;22.68;83.57;101415.81;5054692;28;20217;-78
2023/08/20 00:41:08;;;;;;;16.77;14.70;;;22.70;99.90;;;22.63;83.50;101418.34;5054430;28;20186;-78
2023/08/20 00:43:40;;;;;;;15.90;14.23;;;22.60;99.90;;;22.63;83.00;101422.97;5054484;28;20313;-77
2023/08/20 00:46:14;;;;;;;16.80;14.73;;;22.70;99.90;;;22.64;82.90;101427.34;5054959;28;20593;-77
2023/08/20 00:48:46;;;;;;;17.40;15.40;;;22.70;99.90;;;22.59;83.41;101433.50;5054339;28;20190;-77
2023/08/20 00:51:18;;;;;;;16.50;14.80;;;22.60;99.90;;;22.61;83.13;101447.75;5060787;28;20262;-76
2023/08/20 00:53:50;;;;;;;16.83;15.00;;;22.60;99.90;;;22.55;83.36;101443.19;5071459;28;20261;-76
2023/08/20 00:56:25;;;;;;;17.83;15.07;;;22.60;99.90;;;22.52;83.01;101438.16;5054426;28;20253;-76
2023/08/20 00:58:58;;;;;;;16.63;14.93;;;22.50;99.90;;;22.50;83.13;101440.25;5054449;28;20190;-77
2023/08/20 01:01:30;;;;;;;19.20;14.47;;;22.50;99.90;;;22.48;83.49;101441.56;5054404;28;20281;-77
2023/08/20 01:04:05;;;;;;;18.57;14.27;;;22.50;99.90;;;22.43;83.15;101442.19;5054060;28;20580;-77
2023/08/20 01:06:48;;;;;;;15.87;14.23;;;22.40;99.90;;;22.42;83.06;101447.91;5054006;28;20668;-78
2023/08/20 01:09:35;;;;;;;16.80;15.07;;;22.40;99.90;;;22.40;83.02;101441.84;5055060;28;20277;-78
2023/08/20 01:12:10;;;;;;;19.63;16.13;;;22.40;99.90;;;22.38;82.75;101444.78;5053911;28;20623;-79
2023/08/20 01:14:41;;;;;;;17.87;15.97;;;22.40;99.90;;;22.38;82.86;101447.50;5054264;28;20333;-78
2023/08/20 01:17:14;;;;;;;18.23;16.33;;;22.40;99.90;;;22.35;82.89;101447.09;5053642;28;20301;-78
2023/08/20 01:19:47;;;;;;;19.83;15.43;;;22.40;99.90;;;22.33;83.20;101446.50;5053777;28;20269;-78
2023/08/20 01:23:00;;;;;;;19.17;17.03;;;22.40;99.90;;;22.31;82.98;101452.16;5053805;28;20200;-78
2023/08/20 01:25:54;;;;;;;17.73;15.70;;;22.30;99.90;;;22.28;82.50;101440.84;5054734;28;20194;-78
2023/08/20 01:28:32;;;;;;;17.67;15.77;;;22.30;99.90;;;22.21;82.12;101451.81;5054651;28;20226;-77
2023/08/20 01:31:07;;;;;;;18.67;15.40;;;22.20;99.90;;;22.18;82.10;101446.81;5053825;28;20276;-78
2023/08/20 01:33:40;;;;;;;16.30;13.73;;;22.20;99.90;;;22.23;81.97;101449.69;5053769;28;20631;-77
2023/08/20 01:36:13;;;;;;;15.27;13.67;;;22.30;99.90;;;22.25;81.71;101444.88;5053692;28;20190;-78
2023/08/20 01:38:48;;;;;;;16.80;13.97;;;22.30;99.90;;;22.25;81.79;101439.41;5053631;28;20290;-78
2023/08/20 01:41:19;;;;;;;16.23;13.57;;;22.30;99.90;;;22.12;82.20;101450.41;5053656;28;20272;-78
2023/08/20 01:43:52;;;;;;;18.73;13.63;;;22.10;99.90;;;22.13;81.85;101452.06;5053871;28;20232;-79
2023/08/20 01:46:24;;;;;;;14.83;13.33;;;22.10;99.90;;;22.08;81.98;101457.34;5053357;28;20292;-78
2023/08/20 01:48:56;;;;;;;16.77;13.97;;;22.10;99.90;;;22.02;81.79;101458.22;5053695;28;20202;-78
2023/08/20 01:51:28;;;;;;;18.80;13.43;;;22.10;99.90;;;22.11;82.45;101451.47;5053716;28;20562;-78
2023/08/20 01:54:00;;;;;;;17.07;13.33;;;22.10;99.90;;;22.15;81.64;101459.00;5053899;28;20659;-78
2023/08/20 01:56:32;;;;;;;15.43;12.03;;;22.20;99.90;;;22.16;81.49;101463.38;5053420;28;20237;-77
2023/08/20 01:59:05;;;;;;;14.17;12.33;;;22.20;99.90;;;22.15;81.81;101449.97;5053474;28;20273;-78
2023/08/20 02:01:37;;;;;;;13.97;12.50;;;22.20;99.90;;;22.10;81.28;101461.53;5053449;28;20282;-77
2023/08/20 02:04:09;;;;;;;15.27;13.17;;;22.10;99.90;;;22.12;81.57;101453.13;5053287;28;20316;-78
2023/08/20 02:06:41;;;;;;;15.37;11.90;;;22.10;99.90;;;22.11;81.66;101440.56;5053084;28;20587;-76
2023/08/20 02:09:19;;;;;;;15.10;12.70;;;22.10;99.90;;;22.09;81.31;101445.41;5053367;28;20300;-76
2023/08/20 02:11:51;;;;;;;14.30;12.80;;;22.10;99.90;;;22.11;81.57;101443.28;5053501;28;20218;-77
2023/08/20 02:14:26;;;;;;;16.90;13.50;;;22.10;99.90;;;22.04;81.05;101445.19;5053207;28;20221;-77
2023/08/20 02:16:58;;;;;;;14.97;11.87;;;22.10;99.90;;;22.06;80.91;101437.63;5052988;28;20702;-77
2023/08/20 02:19:30;;;;;;;16.30;11.90;;;22.10;99.90;;;22.06;80.57;101443.09;5053247;28;20194;-78
2023/08/20 02:22:08;;;;;;;13.90;12.00;;;22.10;99.90;;;22.06;80.24;101443.91;5053199;28;20198;-77
2023/08/20 02:24:40;;;;;;;13.10;11.73;;;22.10;99.90;;;22.02;79.99;101442.69;5053164;28;20316;-77
2023/08/20 02:27:12;;;;;;;11.63;10.53;;;22.00;99.90;;;22.05;79.45;101441.44;5053127;28;20301;-77
2023/08/20 02:29:46;;;;;;;13.90;11.90;;;22.10;99.90;;;22.03;79.58;101440.78;5053238;28;20277;-77
2023/08/20 02:32:18;;;;;;;14.20;11.80;;;22.10;99.90;;;21.98;79.41;101448.81;5053588;28;20202;-77
2023/08/20 02:34:53;;;;;;;11.93;10.73;;;22.10;99.90;;;21.97;78.78;101449.84;5056798;28;20261;-77
2023/08/20 02:37:25;;;;;;;12.87;11.17;;;22.00;99.90;;;21.87;78.57;101449.47;5056967;28;20217;-78
2023/08/20 02:39:57;;;;;;;12.20;10.93;;;21.90;99.90;;;21.84;79.32;101450.72;5056805;28;20202;-78
2023/08/20 02:42:30;;;;;;;13.47;11.07;;;21.90;99.90;;;21.77;79.37;101449.09;5056929;28;20198;-78
2023/08/20 02:45:07;;;;;;;12.60;11.30;;;21.80;99.90;;;21.72;79.40;101447.84;5056731;28;20609;-78
2023/08/20 02:47:39;;;;;;;14.10;11.20;;;21.70;99.90;;;21.67;79.60;101450.38;5056317;28;20659;-77
2023/08/20 02:50:12;;;;;;;11.87;10.60;;;21.60;99.90;;;21.72;79.71;101447.84;5056683;28;20260;-76
2023/08/20 02:52:48;;;;;;;11.50;10.40;;;21.80;99.90;;;21.67;79.07;101463.19;5056639;28;20195;-77
2023/08/20 02:55:20;;;;;;;11.80;10.53;;;21.70;99.90;;;21.59;79.91;101463.41;5056224;28;20322;-77
2023/08/20 02:57:52;;;;;;;12.97;11.20;;;21.60;99.90;;;21.57;79.42;101460.91;5057355;28;20216;-77
2023/08/20 03:00:26;;;;;;;14.77;13.30;;;21.70;99.90;;;21.49;79.76;101452.97;5056581;28;20282;-77
2023/08/20 03:02:58;;;;;;;18.60;15.97;;;21.50;99.90;;;21.47;80.96;101467.84;5056324;28;20296;-77
2023/08/20 03:05:30;;;;;;;17.23;14.87;;;21.50;99.90;;;21.54;80.24;101461.31;5056217;28;20636;-77
2023/08/20 03:08:03;;;;;;;15.67;14.00;;;21.60;99.90;;;21.40;80.64;101464.31;5056396;28;20285;-77
2023/08/20 03:10:35;;;;;;;15.30;13.67;;;21.40;99.90;;;21.38;80.77;101464.50;5056140;28;20236;-77
2023/08/20 03:13:09;;;;;;;14.60;12.93;;;21.40;99.90;;;21.42;80.64;101468.50;5056284;28;20261;-78
2023/08/20 03:15:43;;;;;;;22.23;13.57;;;21.50;99.90;;;21.35;80.65;101473.13;5056102;28;20747;-77
2023/08/20 03:18:15;;;;;;;14.03;12.33;;;21.40;99.90;;;21.29;81.22;101464.97;5056181;28;20245;-77
2023/08/20 03:20:47;;;;;;;14.60;13.10;;;21.30;99.90;;;21.27;81.22;101470.59;5056150;28;20233;-78
2023/08/20 03:23:19;;;;;;;12.83;11.47;;;21.30;99.90;;;21.28;81.28;101472.28;5056140;28;20273;-78
2023/08/20 03:25:52;;;;;;;14.20;12.77;;;21.30;99.90;;;21.29;81.18;101470.41;5056133;28;20198;-77
2023/08/20 03:28:24;;;;;;;14.70;11.50;;;21.40;99.90;;;21.23;81.61;101472.09;5056004;28;20182;-77
2023/08/20 03:30:59;;;;;;;13.00;11.53;;;21.30;99.90;;;21.24;81.62;101465.59;5056050;28;20259;-78
2023/08/20 03:33:31;;;;;;;13.10;11.80;;;21.30;99.90;;;21.22;81.82;101467.69;5056078;28;20260;-77
2023/08/20 03:36:04;;;;;;;12.17;11.00;;;21.30;99.90;;;21.24;81.65;101466.44;5055590;28;20732;-77
2023/08/20 03:38:42;;;;;;;15.47;11.77;;;21.30;99.90;;;21.21;81.65;101471.47;5055373;28;20646;-78
2023/08/20 03:41:14;;;;;;;16.53;11.53;;;21.30;99.90;;;21.25;81.49;101461.81;5055699;28;20610;-77
2023/08/20 03:43:46;;;;;;;12.40;11.13;;;21.40;99.90;;;21.14;81.46;101470.63;5055165;28;20319;-78
2023/08/20 03:46:19;;;;;;;13.83;11.23;;;21.20;99.90;;;21.15;81.58;101475.03;5055369;28;20285;-77
2023/08/20 03:48:51;;;;;;;11.37;10.20;;;21.20;99.90;;;21.08;81.59;101483.19;5055259;28;20674;-78
2023/08/20 03:51:23;;;;;;;12.47;11.27;;;21.10;99.90;;;21.06;81.56;101479.81;5055432;28;20256;-78
2023/08/20 03:53:55;;;;;;;12.50;10.27;;;21.10;99.90;;;21.06;82.56;101479.00;5055386;28;20230;-78
2023/08/20 03:56:27;;;;;;;12.27;10.97;;;21.10;99.90;;;21.05;81.95;101477.31;5055453;28;20289;-78
2023/08/20 03:58:58;;;;;;;11.87;10.67;;;21.10;99.90;;;21.04;82.36;101475.66;5055537;28;20301;-78
2023/08/20 04:01:32;;;;;;;12.13;10.83;;;21.10;99.90;;;20.98;82.13;101471.88;5055291;28;20186;-77
2023/08/20 04:04:04;;;;;;;12.83;10.40;;;21.00;99.90;;;21.01;81.77;101473.34;5055185;28;20244;-77
2023/08/20 04:06:38;;;;;;;11.17;10.00;;;21.10;99.90;;;20.94;82.24;101488.84;5055201;28;20290;-77
2023/08/20 04:09:10;;;;;;;13.40;10.37;;;21.00;99.90;;;20.93;81.97;101500.78;5055159;28;20277;-77
2023/08/20 04:11:42;;;;;;;11.23;9.93;;;21.00;99.90;;;20.88;81.76;101500.56;5055113;28;20198;-77
2023/08/20 04:14:14;;;;;;;12.17;9.80;;;21.00;99.90;;;20.86;82.55;101508.94;5055793;28;20333;-77
2023/08/20 04:16:47;;;;;;;13.83;10.67;;;20.90;99.90;;;20.86;81.85;101510.81;5054658;28;20644;-77
2023/08/20 04:19:19;;;;;;;11.20;9.87;;;21.00;99.90;;;20.84;82.46;101515.66;5054917;28;20206;-77
2023/08/20 04:21:52;;;;;;;11.83;9.60;;;20.90;99.90;;;20.83;82.36;101505.81;5055024;28;20293;-77
2023/08/20 04:24:23;;;;;;;10.53;9.53;;;20.90;99.90;;;20.86;82.73;101516.25;5054771;28;20313;-77
2023/08/20 04:26:56;;;;;;;10.90;9.80;;;21.00;99.90;;;20.84;82.29;101521.09;5055219;28;20644;-77
2023/08/20 04:29:28;;;;;;;10.40;9.40;;;20.90;99.90;;;20.77;82.47;101522.97;5070274;28;20183;-76
2023/08/20 04:32:02;;;;;;;13.37;10.57;;;20.80;99.90;;;20.74;82.84;101525.06;5056391;28;20224;-77
2023/08/20 04:34:34;;;;;;;12.00;9.53;;;20.80;99.90;;;20.73;82.81;101523.38;5054621;28;20312;-77
2023/08/20 04:37:05;;;;;;;11.57;10.03;;;20.80;99.90;;;20.70;83.03;101518.38;5054287;28;20716;-77
2023/08/20 04:39:37;;;;;;;10.37;9.20;;;20.70;99.90;;;20.73;83.20;101517.94;5054383;28;20589;-77
2023/08/20 04:42:10;;;;;;;12.20;9.50;;;20.80;99.90;;;20.71;83.20;101525.50;5054571;28;20252;-77
2023/08/20 04:44:42;;;;;;;12.00;9.63;;;20.80;99.90;;;20.64;83.29;101513.75;5054449;28;20312;-77
2023/08/20 04:47:18;;;;;;;11.10;10.00;;;20.70;99.90;;;20.64;83.41;101513.75;5054181;28;20210;-77
2023/08/20 04:49:50;;;;;;;12.67;9.80;;;20.70;99.90;;;20.58;83.60;101517.28;5054072;28;20182;-77
2023/08/20 04:52:22;;;;;;;13.43;9.00;;;20.70;99.90;;;20.62;83.86;101509.53;5054079;28;20601;-77
2023/08/20 04:54:54;;;;;;;10.37;9.20;;;20.70;99.90;;;20.65;83.33;101526.28;5053930;28;20229;-77
2023/08/20 04:57:26;;;;;;;10.90;9.33;;;20.80;99.90;;;20.63;83.46;101528.41;5053877;28;20222;-77
2023/08/20 04:59:58;;;;;;;11.10;9.83;;;20.80;99.90;;;20.62;84.00;101548.47;5054115;28;20301;-78
2023/08/20 05:02:31;;;;;;;12.43;9.80;;;20.70;99.90;;;20.62;83.91;101536.75;5054075;28;20187;-78
2023/08/20 05:05:03;;;;;;;10.83;9.70;;;20.70;99.90;;;20.54;84.33;101532.38;5053765;28;20591;-78
2023/08/20 05:07:35;;;;;;;11.87;9.63;;;20.60;99.90;;;20.56;83.87;101533.00;5054070;28;20214;-78
2023/08/20 05:10:09;;;;;;;12.53;10.27;;;20.70;99.90;;;20.53;84.92;101544.28;5053985;28;20182;-77
2023/08/20 05:12:41;;;;;;;12.77;11.07;;;20.60;99.90;;;20.50;84.78;101544.69;5053937;28;20269;-77
2023/08/20 05:15:15;;;;;;;15.73;11.57;;;20.60;99.90;;;20.49;84.98;101548.47;5054770;28;20225;-77
2023/08/20 05:17:49;;;;;;;14.53;11.73;;;20.60;99.90;;;20.46;85.11;101554.31;5053898;28;20276;-77
2023/08/20 05:20:21;;;;;;;15.33;10.77;;;20.50;99.90;;;20.48;85.44;101540.53;5053764;28;20210;-77
2023/08/20 05:22:53;;;;;;;12.47;11.17;;;20.60;99.90;;;20.47;85.60;101549.72;5053719;28;20225;-77
2023/08/20 05:25:24;;;;;;;14.60;11.30;;;20.60;99.90;;;20.44;86.30;101534.66;5053891;28;20281;-78
2023/08/20 05:27:56;;;;;;;13.77;10.77;;;20.50;99.90;;;20.45;85.62;101541.75;5053669;28;20213;-78
2023/08/20 05:30:28;;;;;;;13.43;10.97;;;20.60;99.90;;;20.48;85.90;101551.41;5053693;28;20278;-78
2023/08/20 05:33:01;;;;;;;11.57;10.37;;;20.60;99.90;;;20.50;85.98;101544.69;5053757;28;20230;-78
2023/08/20 05:35:34;;;;;;;17.20;10.53;;;20.60;99.90;;;20.43;86.18;101554.72;5053263;28;20602;-78
2023/08/20 05:38:06;;;;;;;13.07;10.40;;;20.60;99.90;;;20.31;86.58;101550.91;5053595;28;20256;-78
2023/08/20 05:40:38;;;;;;;13.83;9.87;;;20.50;99.90;;;20.34;85.82;101555.97;5053455;28;20239;-78
2023/08/20 05:43:10;;;;;;;13.70;10.50;;;20.50;99.90;;;20.25;86.80;101552.53;5053108;28;20591;-78
2023/08/20 05:45:42;;;;;;;12.53;9.73;;;20.40;99.90;;;20.25;85.96;101547.09;5053203;28;20560;-78
2023/08/20 05:48:15;;;;;;;14.10;10.30;;;20.40;99.90;;;20.28;85.67;101550.47;5053157;28;20664;-78
2023/08/20 05:50:47;;;;;;;13.70;9.70;;;20.40;99.90;;;20.24;85.53;101550.00;5053438;28;20218;-78
2023/08/20 05:53:19;;;;;;;14.07;9.93;;;20.40;99.90;;;20.24;85.89;101544.56;5053381;28;20306;-78
2023/08/20 05:55:51;;;;;;;16.63;10.27;;;20.40;99.90;;;20.27;85.76;101543.34;5053390;28;20247;-79
2023/08/20 05:58:23;;;;;;;13.70;10.03;;;20.40;99.90;;;20.31;85.63;101526.44;5053031;28;20288;-78
2023/08/20 06:00:55;;;;;;;16.73;10.63;;;20.50;99.90;;;20.35;85.63;101527.69;5053227;28;20244;-78
2023/08/20 06:03:28;;;;;;;13.50;9.47;;;20.50;99.90;;;20.37;85.91;101520.19;5053550;28;20264;-78
2023/08/20 06:06:03;;;;;;;12.67;9.93;;;20.50;99.90;;;20.35;85.80;101505.94;5053305;28;20194;-78
2023/08/20 06:08:38;;;;;;;14.03;8.93;;;20.50;99.90;;;20.36;86.06;101504.91;5057506;28;20601;-78
2023/08/20 06:11:10;;;;;;;12.27;8.67;;;20.50;99.90;;;20.37;85.54;101503.03;5057506;28;20229;-78
2023/08/20 06:13:42;;;;;;;12.00;8.93;;;20.50;99.90;;;20.39;85.74;101498.22;5056940;28;20798;-78
2023/08/20 06:16:14;;;;;;;11.43;9.17;;;20.60;99.90;;;20.41;86.24;101510.56;5058349;28;20664;-77
2023/08/20 06:18:47;;;;;;;12.40;8.47;;;20.60;99.90;;;20.45;85.36;101508.25;5058261;28;20260;-77
2023/08/20 06:21:21;;;;;;;10.93;8.87;;;20.70;99.90;;;20.48;85.68;101500.53;5058736;28;20189;-77
2023/08/20 06:23:53;;;;;;;15.40;10.47;;;20.70;99.90;;;20.51;85.86;101502.88;5058842;28;20226;-78
2023/08/20 06:26:25;;;;;;;12.87;9.57;;;20.80;99.90;;;20.52;85.43;101503.69;5058776;28;20282;-78
2023/08/20 06:28:57;;;;;;;13.40;8.97;;;20.80;99.90;;;20.56;86.61;101510.38;5058896;28;20240;-78
2023/08/20 06:31:29;;;;;;;13.07;9.20;;;20.80;99.90;;;20.57;85.55;101512.06;5058645;28;20190;-78
2023/08/20 06:34:02;;;;;;;10.70;8.43;;;20.80;99.90;;;20.59;85.45;101507.25;5059303;28;20222;-78
2023/08/20 06:36:34;;;;;;;13.33;9.30;;;20.90;99.90;;;20.60;84.64;101512.50;5058811;28;20605;-78
2023/08/20 06:39:07;;;;;;;10.10;8.27;;;20.80;99.90;;;20.62;83.47;101513.09;5058386;28;20609;-78
2023/08/20 06:41:39;;;;;;;10.80;8.33;;;20.90;99.90;;;20.69;84.69;101515.84;5059770;28;20277;-78
2023/08/20 06:44:11;;;;;;;9.97;8.33;;;21.00;99.90;;;20.73;82.76;101523.38;5060477;28;20564;-78
2023/08/20 06:46:43;;;;;;;12.93;8.50;;;21.00;99.90;;;20.77;83.39;101528.41;5059865;28;20568;-78
2023/08/20 06:49:16;;;;;;;12.13;8.63;;;21.00;99.90;;;20.80;84.28;101528.00;5058813;28;20256;-78
2023/08/20 06:51:48;;;;;;;9.90;8.23;;;21.10;99.90;;;20.80;84.53;101533.44;5057895;28;20195;-78
2023/08/20 06:54:20;;;;;;;10.67;8.00;;;21.10;99.90;;;20.80;84.08;101539.72;5057720;28;20257;-78
2023/08/20 06:56:52;;;;;;;10.37;7.27;;;21.10;99.90;;;20.83;84.70;101538.47;5057605;28;20617;-78
2023/08/20 06:59:24;;;;;;;12.50;7.83;;;21.10;99.90;;;20.84;83.69;101537.41;5057611;28;20301;-78
2023/08/20 07:01:56;;;;;;;9.33;8.00;;;21.10;99.90;;;20.86;83.13;101547.03;5057671;28;20200;-79
2023/08/20 07:04:29;;;;;;;9.23;6.90;;;21.10;99.90;;;20.86;80.90;101535.31;5057404;28;20237;-78
2023/08/20 07:07:01;;;;;;;10.97;7.20;;;21.20;99.90;;;20.93;82.80;101533.44;5057258;28;20637;-78
2023/08/20 07:09:32;;;;;;;8.73;7.00;;;21.20;99.90;;;20.94;81.33;101537.84;5057257;28;20226;-78
2023/08/20 07:12:04;;;;;;;9.60;5.73;;;21.20;99.90;;;20.98;80.38;101534.50;5059624;28;20252;-78
2023/08/20 07:14:36;;;;;;;7.57;6.00;;;21.30;99.90;;;21.02;81.71;101548.53;5058938;28;20230;-78
2023/08/20 07:17:08;;;;;;;9.90;6.07;;;21.30;99.90;;;21.02;79.05;101543.09;5058128;28;20328;-79
2023/08/20 07:19:42;;;;;;;8.93;5.40;;;21.40;99.90;;;21.08;80.74;101531.34;5058216;28;20214;-79
2023/08/20 07:22:14;;;;;;;9.60;5.10;;;21.40;99.90;;;21.09;76.09;101543.94;5058165;28;20559;-78
2023/08/20 07:24:46;;;;;;;8.57;4.97;;;21.40;99.90;;;21.13;75.57;101556.94;5058725;28;20225;-78
2023/08/20 07:27:18;;;;;;;7.17;4.77;;;21.40;99.90;;;21.16;77.48;101544.81;5058891;28;20217;-78
2023/08/20 07:29:50;;;;;;;8.77;5.17;;;21.50;99.90;;;21.24;76.73;101548.13;5058359;28;20719;-78
2023/08/20 07:32:22;;;;;;;6.10;4.70;;;21.60;99.90;;;21.28;77.64;101540.38;5059283;28;20186;-78
2023/08/20 07:34:55;;;;;;;6.67;5.33;;;21.60;99.90;;;21.31;78.38;101545.41;5058696;28;20229;-78
2023/08/20 07:37:26;;;;;;;7.13;5.13;;;21.60;99.90;;;21.34;78.35;101544.97;5058654;28;20286;-78
2023/08/20 07:39:58;;;;;;;7.73;5.00;;;21.70;99.90;;;21.37;77.89;101541.81;5057351;28;20297;-78
2023/08/20 07:42:30;;;;;;;7.00;5.30;;;21.70;99.90;;;21.43;75.94;101545.59;5059211;28;20190;-78
2023/08/20 07:45:02;;;;;;;6.17;4.53;;;21.80;99.90;;;21.48;77.22;101543.91;5059550;28;20324;-78
2023/08/20 07:47:35;;;;;;;8.80;4.83;;;21.80;99.90;;;21.51;76.49;101553.53;5060251;28;20678;-78
2023/08/20 07:50:11;;;;;;;6.77;4.80;;;21.90;99.90;;;21.56;73.52;101546.44;5060044;28;20195;-78
2023/08/20 07:52:43;;;;;;;8.93;5.10;;;21.30;99.90;;;21.69;73.34;101542.81;5060117;28;20190;-78
2023/08/20 07:55:15;;;;;;;5.50;4.50;;;22.00;99.90;;;21.73;73.09;101553.09;5055444;28;20218;-78
2023/08/20 07:57:48;;;;;;;9.03;4.83;;;22.10;99.90;;;21.78;75.49;101546.16;5055372;28;20281;-78
2023/08/20 08:00:20;;;;;;;7.23;4.67;;;22.20;99.90;;;21.82;74.67;101534.59;5055274;28;20258;-78
2023/08/20 08:02:52;;;;;;;6.53;4.50;;;22.20;99.90;;;21.86;77.00;101529.56;5055504;28;20222;-77
2023/08/20 08:05:26;;;;;;;6.27;5.03;;;22.30;99.90;;;21.88;76.30;101541.09;5055261;28;20195;-77
2023/08/20 08:07:58;;;;;;;8.37;4.77;;;22.30;99.90;;;22.03;72.72;101547.16;5054889;28;20194;-77
2023/08/20 08:10:29;;;;;;;5.97;4.47;;;22.40;99.90;;;22.12;73.26;101543.13;5055256;28;20224;-77
2023/08/20 08:13:01;;;;;;;7.20;4.37;;;22.50;99.90;;;22.23;71.54;101547.88;5055849;28;20576;-78
2023/08/20 08:15:33;;;;;;;7.57;4.57;;;22.60;99.90;;;22.26;70.38;101555.63;5069324;28;20190;-76
2023/08/20 08:18:06;;;;;;;9.43;5.70;;;22.70;99.90;;;22.26;73.07;101552.09;5069503;28;20190;-78
2023/08/20 08:20:39;;;;;;;5.77;4.53;;;22.60;99.90;;;22.26;73.73;101552.91;5054992;28;20214;-79
2023/08/20 08:23:11;;;;;;;6.20;4.87;;;22.60;99.90;;;22.28;73.91;101555.44;5055477;28;20258;-78
2023/08/20 08:25:43;;;;;;;5.37;4.70;;;22.60;99.90;;;22.37;73.27;101554.97;5054920;28;20280;-78
2023/08/20 08:28:15;;;;;;;7.83;5.10;;;22.70;99.90;;;22.40;72.67;101551.78;5054622;28;20256;-79
2023/08/20 08:30:47;;;;;;;7.03;4.73;;;22.80;99.90;;;22.45;73.98;101556.59;5053594;28;20560;-79
2023/08/20 08:33:19;;;;;;;6.13;4.97;;;22.80;99.90;;;22.52;73.81;101557.41;5054715;28;20234;-79
2023/08/20 08:35:52;;;;;;;6.00;4.73;;;22.90;99.90;;;22.63;72.30;101548.53;5054745;28;20281;-79
2023/08/20 08:38:24;;;;;;;6.57;4.90;;;23.00;99.90;;;22.70;70.95;101547.47;5054807;28;20290;-79
2023/08/20 08:40:58;;;;;;;8.17;5.80;;;23.10;99.90;;;22.73;71.85;101554.38;5054967;28;20216;-79
2023/08/20 08:43:33;;;;;;;7.07;4.47;;;23.20;99.90;;;22.82;67.83;101557.66;5054736;28;20244;-77
2023/08/20 08:46:09;;;;;;;6.53;4.67;;;23.20;99.90;;;22.94;66.64;101562.19;5055507;28;20232;-77
2023/08/20 08:48:44;;;;;;;7.57;5.13;;;23.30;99.90;;;23.06;66.02;101559.56;5054600;28;20194;-78
2023/08/20 08:51:19;;;;;;;6.00;4.70;;;23.40;99.90;;;23.19;65.26;101554.00;5054599;28;20228;-78
2023/08/20 08:53:51;;;;;;;6.37;4.40;;;23.60;99.90;;;23.29;65.39;101558.97;5054717;28;20248;-78
2023/08/20 08:56:23;;;;;;;7.57;4.70;;;23.60;99.90;;;23.34;65.76;101556.38;5054608;28;20286;-78
2023/08/20 08:58:55;;;;;;;6.10;4.30;;;23.80;99.90;;;23.27;68.66;101556.44;5054436;28;20233;-78
2023/08/20 09:01:27;;;;;;;5.53;4.00;;;23.60;99.90;;;23.28;70.36;101554.56;5054712;28;20218;-78
2023/08/20 09:04:00;;;;;;;7.07;4.50;;;23.60;99.90;;;23.29;71.05;101557.03;5054508;28;20265;-78
2023/08/20 09:06:48;;;;;;;8.23;4.67;;;23.60;99.90;;;23.34;69.00;101565.44;5054466;28;20269;-78
2023/08/20 09:09:21;;;;;;;5.17;3.80;;;23.70;99.90;;;23.45;64.54;101558.41;5054641;28;20214;-78
2023/08/20 09:11:53;;;;;;;4.67;3.73;;;23.80;99.90;;;23.58;62.68;101559.13;5053985;28;20221;-78
2023/08/20 09:14:30;;;;;;;7.20;4.00;;;24.00;99.90;;;23.71;63.52;101564.44;5053615;28;20778;-78
2023/08/20 09:17:04;;;;;;;5.63;3.87;;;24.10;99.90;;;23.79;62.59;101566.06;5053977;28;20259;-78
2023/08/20 09:19:43;;;;;;;6.80;3.90;;;24.20;99.90;;;23.92;60.87;101576.00;5053919;28;20225;-77
2023/08/20 09:22:18;;;;;;;6.10;4.00;;;24.30;99.20;;;23.91;63.75;101564.22;5053994;28;20214;-78
2023/08/20 09:24:55;;;;;;;6.17;3.80;;;24.30;99.90;;;23.98;61.62;101564.13;5053452;28;20229;-77
2023/08/20 09:27:27;;;;;;;7.50;4.03;;;24.30;99.40;;;23.96;64.54;101560.81;5053736;28;20225;-78
2023/08/20 09:30:00;;;;;;;7.33;4.30;;;24.30;99.90;;;24.09;63.14;101561.50;5053713;28;20616;-78
2023/08/20 09:32:32;;;;;;;6.20;3.87;;;24.40;99.90;;;24.06;63.37;101561.09;5053280;28;20798;-78
2023/08/20 09:35:04;;;;;;;7.57;3.83;;;24.40;99.90;;;24.13;62.54;101562.75;5053388;28;20190;-78
2023/08/20 09:37:37;;;;;;;5.63;3.77;;;24.50;99.70;;;24.19;65.76;101560.97;5053610;28;20222;-78
2023/08/20 09:40:12;;;;;;;5.07;3.70;;;24.50;99.90;;;24.36;61.57;101562.00;5053305;28;20641;-78
2023/08/20 09:42:45;;;;;;;4.13;3.63;;;24.70;99.30;;;24.48;61.87;101560.16;5053074;28;20300;-78
2023/08/20 09:45:18;;;;;;;4.83;3.67;;;24.80;99.00;;;24.52;61.29;101555.88;5053218;28;20648;-78
2023/08/20 09:47:58;;;;;;;8.33;3.90;;;24.90;99.00;;;24.57;62.55;101557.94;5053323;28;20218;-78
2023/08/20 09:50:36;;;;;;;5.20;3.73;;;24.90;99.30;;;24.74;59.88;101559.78;5053387;28;20554;-78
2023/08/20 09:53:18;;;;;;;4.80;4.30;;;25.10;98.60;;;24.76;59.97;101561.44;5053067;28;20610;-78
2023/08/20 09:55:51;;;;;;;6.37;3.70;;;25.10;99.50;;;24.81;58.19;101551.44;5053971;28;20241;-77
2023/08/20 09:58:25;;;;;;;5.33;3.70;;;25.10;97.00;;;24.85;62.37;101546.38;5053343;28;20281;-78
2023/08/20 10:00:57;;;;;;;5.07;4.00;;;25.10;98.90;;;24.92;64.46;101541.63;5053025;28;20613;-78
2023/08/20 10:03:30;;;;;;;6.33;3.97;;;25.30;99.90;;;25.04;54.96;101547.94;5052966;28;20755;-77
2023/08/20 10:06:06;;;;;;;5.13;3.53;;;25.40;95.20;;;25.11;55.51;101545.94;5053584;28;20193;-78
2023/08/20 10:08:40;;;;;;;3.78;2.90;;;25.40;95.50;;;25.26;54.80;101546.31;5053309;28;20222;-77
2023/08/20 10:11:12;;;;;;;7.32;3.60;;;25.60;94.70;;;25.36;54.41;101545.72;5053441;28;20215;-77
2023/08/20 10:13:45;;;;;;;5.38;3.75;;;25.70;95.10;;;25.39;58.33;101543.34;5053356;28;20313;-77
2023/08/20 10:16:21;;;;;;;3.63;3.30;;;25.70;96.70;;;25.44;58.94;101543.47;5053284;28;20252;-78
2023/08/20 10:18:55;;;;;;;4.85;3.65;;;25.70;97.10;;;25.56;56.54;101538.81;5052892;28;20194;-78
2023/08/20 10:21:29;;;;;;;4.45;3.20;;;25.90;95.70;;;25.59;56.69;101541.09;5053127;28;20303;-78
2023/08/20 10:24:06;;;;;;;4.00;2.80;;;25.90;95.60;;;25.73;56.04;101537.03;5053106;28;20237;-78
2023/08/20 10:26:39;;;;;;;5.93;3.67;;;26.00;94.90;;;25.81;55.12;101537.72;5053191;28;20218;-78
2023/08/20 10:29:42;;;;;;;4.53;2.75;;;26.10;94.70;;;25.96;52.34;101543.56;5053542;28;20218;-76